createdAt,value
2023-04-29T00:00:24.430Z,97840
2023-04-29T00:12:24.421Z,97840
2023-04-29T00:24:24.450Z,97840
2023-04-29T00:36:24.492Z,97840
2023-04-29T00:48:24.422Z,97860
2023-04-29T01:00:24.454Z,97860
2023-04-29T01:12:24.414Z,97880
2023-04-29T01:24:24.490Z,97860
2023-04-29T01:36:24.430Z,97880
2023-04-29T01:48:24.428Z,97880
2023-04-29T02:00:24.421Z,97880
2023-04-29T02:12:24.592Z,97880
2023-04-29T02:24:24.448Z,97890
2023-04-29T02:36:24.433Z,97890
2023-04-29T02:48:24.506Z,97910
2023-04-29T03:00:24.559Z,97920
2023-04-29T03:12:24.434Z,97930
2023-04-29T03:24:24.421Z,97920
2023-04-29T03:36:24.508Z,97920
2023-04-29T03:48:24.549Z,97930
2023-04-29T04:00:24.517Z,97940
2023-04-29T04:12:24.429Z,97950
2023-04-29T04:24:24.586Z,97950
2023-04-29T04:36:24.424Z,97960
2023-04-29T04:48:24.513Z,97980
2023-04-29T05:00:24.485Z,97980
2023-04-29T05:12:24.463Z,98000
2023-04-29T05:24:24.420Z,98020
2023-04-29T05:36:24.442Z,98020
2023-04-29T05:48:24.416Z,98030
2023-04-29T06:00:24.432Z,98050
2023-04-29T06:12:24.441Z,98060
2023-04-29T06:24:24.421Z,98080
2023-04-29T06:36:24.940Z,98100
2023-04-29T06:48:24.425Z,98110
2023-04-29T07:00:24.554Z,98130
2023-04-29T07:12:24.482Z,98130
2023-04-29T07:24:24.443Z,98140
2023-04-29T07:36:24.426Z,98160
2023-04-29T07:48:24.533Z,98170
2023-04-29T08:00:24.484Z,98170
2023-04-29T08:12:24.507Z,98180
2023-04-29T08:24:24.534Z,98220
2023-04-29T08:36:24.567Z,98220
2023-04-29T08:48:24.592Z,98240
2023-04-29T09:00:24.443Z,98250
2023-04-29T09:12:24.541Z,98250
2023-04-29T09:24:24.484Z,98270
2023-04-29T09:36:24.454Z,98280
2023-04-29T09:48:24.440Z,98300
2023-04-29T10:00:24.427Z,98300
2023-04-29T10:12:24.536Z,98320
2023-04-29T10:24:24.450Z,98330
2023-04-29T10:36:24.431Z,98330
2023-04-29T10:48:24.430Z,98330
2023-04-29T11:00:24.426Z,98340
2023-04-29T11:12:24.438Z,98340
2023-04-29T11:24:24.427Z,98350
2023-04-29T11:36:24.545Z,98350
2023-04-29T11:48:24.451Z,98350
2023-04-29T12:00:24.510Z,98350
2023-04-29T12:12:24.879Z,98370
2023-04-29T12:24:24.519Z,98380
2023-04-29T12:36:24.435Z,98400
2023-04-29T12:48:30.030Z,98400
2023-04-29T13:00:24.414Z,98410
2023-04-29T13:12:24.919Z,98400
2023-04-29T13:24:24.451Z,98410
2023-04-29T13:36:24.483Z,98410
2023-04-29T14:12:24.417Z,98420
2023-04-29T14:24:24.427Z,98430
2023-04-29T14:36:24.459Z,98420
2023-04-29T14:48:24.538Z,98440
2023-04-29T15:00:24.437Z,98450
2023-04-29T15:12:24.513Z,98460
2023-04-29T15:24:24.416Z,98460
2023-04-29T15:36:24.465Z,98480
2023-04-29T15:48:24.515Z,98490
2023-04-29T16:00:24.536Z,98480
2023-04-29T16:12:24.431Z,98490
2023-04-29T16:24:24.538Z,98490
2023-04-29T16:36:24.493Z,98500
2023-04-29T16:48:24.427Z,98500
2023-04-29T17:00:24.442Z,98500
2023-04-29T17:12:24.431Z,98500
2023-04-29T17:24:24.532Z,98510
2023-04-29T17:36:24.554Z,98510
2023-04-29T17:48:24.549Z,98520
2023-04-29T18:00:24.577Z,98520
2023-04-29T18:12:24.424Z,98520
2023-04-29T18:24:24.441Z,98520
2023-04-29T18:36:24.436Z,98540
2023-04-29T18:48:24.454Z,98530
2023-04-29T19:00:24.443Z,98530
2023-04-29T19:12:24.445Z,98540
2023-04-29T19:24:24.436Z,98560
2023-04-29T19:36:24.511Z,98570
2023-04-29T19:48:24.529Z,98580
2023-04-29T20:00:24.551Z,98570
2023-04-29T20:12:24.508Z,98570
2023-04-29T20:24:24.520Z,98570
2023-04-29T20:36:24.529Z,98560
2023-04-29T20:48:24.518Z,98580
2023-04-29T21:00:24.506Z,98590
2023-04-29T21:12:24.556Z,98580
2023-04-29T21:24:24.536Z,98590
2023-04-29T21:36:24.534Z,98590
2023-04-29T21:48:24.489Z,98600
2023-04-29T22:00:24.526Z,98600
2023-04-29T22:12:24.543Z,98600
2023-04-29T22:24:24.422Z,98620
2023-04-29T22:36:24.539Z,98630
2023-04-29T22:48:27.257Z,98620
2023-04-29T23:00:24.507Z,98630
2023-04-29T23:12:24.461Z,98630
2023-04-29T23:24:24.419Z,98630
2023-04-29T23:36:24.498Z,98630
2023-04-29T23:48:24.434Z,98630
